Terminal Aerodrome Forecast
Issued by NWS

Home | Current Version | Previous Version | Text Only | Print | Product List | Glossary Off
Versions: 1 2 3 4 5 6 7 8 9 10 11 12 13

526
FTUS43 KIWX 230520
TAFSBN
TAF
KSBN 230520Z 2306/2406 07003KT P6SM SKC
     FM231600 17006KT P6SM SKC=

USA.gov is the U.S. government's official web portal to all federal, state and local government web resources and services.